Nearby METAR Reports

 

KMTN - Baltimore/Martin, Maryland, USA
Distance from station: SSE 8mi, 13km
Updated: Thu, 17-Apr-2014 4:50pm EDT
Partly cloudy
Partly cloudy
 Wind from E
Wind: E 8 mph , 13 km/h
Temperature: 54°F , 12°C
Dew Point: 34°F , 1°C
Humidity: 47%
Barometer: 30.60 inHg , 1036.2 hPa
Clouds: Partly cloudy
Visibility: 10 miles , 16 km
Cloud details: Partly cloudy 4400 ft
2014/04/17 20:50 KMTN 172050Z 10007KT 10SM SCT044 12/01 A3060
KDMH - Baltimore/Dwntwn, Maryland, USA
Distance from station: SW 12mi, 19km
Updated: Thu, 17-Apr-2014 4:54pm EDT

 
Temperature: 52°F , 11°C
Dew Point: 32°F , 0°C
Humidity: 47%
Barometer: 30.58 inHg , 1035.6 hPa
2014/04/17 20:54 KDMH 172054Z AUTO 11/00 A3058 RMK AO1 SLP353 T01110000 58027
 
KBWI - Balto/Wash Intl, Maryland, USA
Distance from station: SSW 20mi, 33km
Updated: Thu, 17-Apr-2014 4:54pm EDT
Mostly cloudy
Mostly cloudy
 Wind from E
Wind: E 13 mph , 20 km/h, Gust: 17 mph , 28 km/h
Temperature: 52°F , 11°C
Dew Point: 30°F , -1°C
Humidity: 44%
Barometer: 30.57 inHg , 1035.2 hPa
Clouds: Mostly cloudy
Visibility: 10 miles , 16 km
Cloud details: Few Clouds 5000 ft
Mostly cloudy 25000 ft
2014/04/17 20:54 KBWI 172054Z 10011G15KT 10SM FEW050 BKN250 11/M01 A3057 RMK AO2 SLP354 T01061011 56016
KDMW - Carroll Cnty, Maryland, USA
Distance from station: WNW 30mi, 48km
Updated: Thu, 17-Apr-2014 4:55pm EDT
Clear
Clear
 Wind from SE
Wind: SE 10 mph , 17 km/h
Temperature: 55°F , 13°C
Dew Point: 28°F , -2°C
Humidity: 36%
Barometer: 30.54 inHg , 1034.2 hPa
Clouds: Clear
Visibility: 10 miles , 16 km
2014/04/17 20:55 KDMW 172055Z AUTO 14009KT 10SM CLR 13/M02 A3054 RMK AO2
 
KNAK - Annapolis/Naval, Maryland, USA
Distance from station: S 30mi, 48km
Updated: Thu, 17-Apr-2014 4:54pm EDT
Clear
Clear
 Wind from E
Wind: E 12 mph , 19 km/h
Temperature: 50°F , 10°C
Wind Chill: 45°F , 7°C
Dew Point: 34°F , 1°C
Humidity: 54%
Barometer: 30.59 inHg , 1035.9 hPa
Clouds: Clear
Visibility: 10 miles , 16 km
2014/04/17 20:54 KNAK 172054Z AUTO 09010KT 10SM CLR 10/01 A3059 RMK AO2 SLP359 T01000006 56016
KW29 - Stevensville, Maryland, USA
Distance from station: SSE 31mi, 50km
Updated: Thu, 17-Apr-2014 4:57pm EDT
Partly cloudy
Partly cloudy
 Wind from E
Wind: E 10 mph , 17 km/h, Gust: 16 mph , 26 km/h
Temperature: 50°F , 10°C
Wind Chill: 46°F , 8°C
Dew Point: 30°F , -1°C
Humidity: 47%
Barometer: 30.59 inHg , 1035.9 hPa
Clouds: Partly cloudy
Visibility: 10 miles , 16 km
Cloud details: Partly cloudy 4300 ft
2014/04/17 20:57 KW29 172057Z AUTO 08009G14KT 10SM SCT043 10/M01 A3059 RMK AO1
 
KCGS - College Park, Maryland, USA
Distance from station: SW 38mi, 61km
Updated: Thu, 17-Apr-2014 4:55pm EDT
Clear
Clear
 Wind from SE
Wind: SE 7 mph , 11 km/h
Temperature: 54°F , 12°C
Dew Point: 30°F , -1°C
Humidity: 41%
Barometer: 30.57 inHg , 1035.2 hPa
Clouds: Clear
Visibility: 10 miles , 16 km
2014/04/17 20:55 KCGS 172055Z AUTO 13006KT 10SM CLR 12/M01 A3057 RMK AO1
KGAI - Gaithersburg, Maryland, USA
Distance from station: WSW 40mi, 65km
Updated: Thu, 17-Apr-2014 4:55pm EDT
Clear
Clear
 Wind from SE
Wind: SE 15 mph , 24 km/h, Gust: 20 mph , 31 km/h
Temperature: 54°F , 12°C
Dew Point: 30°F , -1°C
Humidity: 41%
Barometer: 30.57 inHg , 1035.2 hPa
Clouds: Clear
Visibility: 10 miles , 16 km
2014/04/17 20:55 KGAI 172055Z AUTO 13013G17KT 10SM CLR 12/M01 A3057 RMK AO1 57017
 
KTHV - York, Pennsylvania, USA
Distance from station: NNW 40mi, 65km
Updated: Thu, 17-Apr-2014 4:53pm EDT
Clear
Clear
 Wind from SSE
Wind: SSE 9 mph , 15 km/h
Temperature: 54°F , 12°C
Dew Point: 28°F , -2°C
Humidity: 38%
Barometer: 30.55 inHg , 1034.5 hPa
Clouds: Clear
Visibility: 10 miles , 16 km
2014/04/17 20:53 KTHV 172053Z AUTO 15008KT 10SM CLR 12/M02 A3055 RMK AO2 SLP350 T01221017 56020
KFDK - Frederick, Maryland, USA
Distance from station: W 47mi, 75km
Updated: Thu, 17-Apr-2014 4:47pm EDT

 Wind from ESE
Wind: ESE 10 mph , 17 km/h
2014/04/17 20:47 KFDK 172047Z 12009KT 10 SKC 13/02 A3057
 
KESN - Easton/Newnam, Maryland, USA
Distance from station: SSE 48mi, 78km
Updated: Thu, 17-Apr-2014 4:50pm EDT
Partly cloudy
Partly cloudy
 Wind from E
Wind: E 13 mph , 20 km/h, Gust: 23 mph , 37 km/h
Temperature: 52°F , 11°C
Dew Point: 34°F , 1°C
Humidity: 50%
Barometer: 30.63 inHg , 1037.3 hPa
Clouds: Partly cloudy
Visibility: 10 miles , 16 km
Cloud details: Partly cloudy 3800 ft
2014/04/17 20:50 KESN 172050Z 09011G20KT 10SM SCT038 11/01 A3063
KDCA - Washington/Natl, Washington D.c., USA
Distance from station: SW 49mi, 79km
Updated: Thu, 17-Apr-2014 4:52pm EDT
Mostly cloudy
Mostly cloudy
 Wind from ESE
Wind: ESE 13 mph , 20 km/h
Temperature: 55°F , 13°C
Dew Point: 34°F , 1°C
Humidity: 44%
Barometer: 30.57 inHg , 1035.2 hPa
Clouds: Mostly cloudy
Visibility: 10 miles , 16 km
Cloud details: Few Clouds 5000 ft
Mostly cloudy 25000 ft
2014/04/17 20:52 KDCA 172052Z 11011KT 10SM FEW050 BKN250 13/01 A3057 RMK AO2 SLP351 T01280006 56018
 
KLNS - Lancaster, Pennsylvania, USA
Distance from station: N 49mi, 79km
Updated: Thu, 17-Apr-2014 4:53pm EDT
Clear
Clear
 Wind from SSE
Wind: SSE 12 mph , 19 km/h
Temperature: 52°F , 11°C
Dew Point: 28°F , -2°C
Humidity: 41%
Barometer: 30.56 inHg , 1034.9 hPa
Clouds: Clear
Visibility: 10 miles , 16 km
2014/04/17 20:53 KLNS 172053Z 15010KT 10SM CLR 11/M02 A3056 RMK AO2 SLP351 T01111017 56021
KILG - Wilmington, Delaware, USA
Distance from station: ENE 50mi, 81km
Updated: Thu, 17-Apr-2014 4:51pm EDT
Clear
Clear
 Wind from ESE
Wind: ESE 14 mph , 22 km/h, Gust: 21 mph , 33 km/h
Temperature: 52°F , 11°C
Dew Point: 30°F , -1°C
Humidity: 44%
Barometer: 30.61 inHg , 1036.6 hPa
Clouds: Clear
Visibility: 10 miles , 16 km
2014/04/17 20:51 KILG 172051Z 12012G18KT 10SM CLR 11/M01 A3061 RMK AO2 SLP363 T01111011 58015